createdAt,value
2022-11-27T00:00:49.695Z,1.30
2022-11-27T00:02:56.289Z,1.30
2022-11-27T00:05:03.175Z,1.30
2022-11-27T00:07:07.759Z,1.30
2022-11-27T00:09:17.797Z,1.30
2022-11-27T00:11:29.599Z,1.30
2022-11-27T00:13:44.041Z,1.30
2022-11-27T00:20:40.413Z,1.30
2022-11-27T00:22:56.755Z,1.20
2022-11-27T00:25:25.090Z,1.30
2022-11-27T00:30:22.555Z,1.20
2022-11-27T00:32:24.232Z,1.20
2022-11-27T00:34:26.586Z,1.20
2022-11-27T00:36:30.532Z,1.20
2022-11-27T00:38:37.392Z,1.20
2022-11-27T00:40:40.614Z,1.20
2022-11-27T00:42:42.342Z,1.20
2022-11-27T00:44:44.071Z,1.20
2022-11-27T00:46:46.434Z,1.20
2022-11-27T00:48:48.478Z,1.20
2022-11-27T00:50:50.178Z,1.20
2022-11-27T00:52:51.899Z,1.10
2022-11-27T00:54:53.570Z,1.10
2022-11-27T00:56:55.439Z,1.10
2022-11-27T00:58:57.750Z,1.20
2022-11-27T01:01:02.176Z,1.10
2022-11-27T01:03:03.981Z,1.10
2022-11-27T01:05:06.211Z,1.10
2022-11-27T01:07:07.945Z,1.10
2022-11-27T01:09:12.107Z,1.20
2022-11-27T01:11:16.769Z,1.20
2022-11-27T01:13:18.618Z,1.20
2022-11-27T01:15:20.359Z,1.20
2022-11-27T01:17:22.060Z,1.20
2022-11-27T01:19:23.778Z,1.20
2022-11-27T01:21:27.681Z,1.20
2022-11-27T01:23:29.686Z,1.20
2022-11-27T01:25:31.429Z,1.20
2022-11-27T01:27:33.129Z,1.20
2022-11-27T01:29:34.830Z,1.20
2022-11-27T01:31:36.801Z,1.10
2022-11-27T01:33:38.764Z,1.10
2022-11-27T01:35:40.553Z,1.10
2022-11-27T01:37:42.240Z,1.10
2022-11-27T01:39:43.965Z,1.10
2022-11-27T01:41:47.900Z,1.10
2022-11-27T01:43:56.112Z,1.10
2022-11-27T01:45:57.981Z,1.10
2022-11-27T01:48:03.120Z,1.10
2022-11-27T01:50:13.660Z,1.10
2022-11-27T01:52:46.787Z,1.10
2022-11-27T01:54:59.875Z,1.10
2022-11-27T01:57:13.446Z,1.10
2022-11-27T01:59:17.217Z,1.00
2022-11-27T02:01:19.294Z,1.00
2022-11-27T02:03:21.714Z,1.00
2022-11-27T02:05:24.321Z,1.00
2022-11-27T02:07:26.343Z,1.00
2022-11-27T02:09:29.468Z,1.00
2022-11-27T02:11:42.957Z,0.90
2022-11-27T02:14:10.871Z,0.90
2022-11-27T02:16:31.693Z,0.90
2022-11-27T02:18:39.047Z,0.90
2022-11-27T02:21:01.766Z,0.90
2022-11-27T02:23:34.347Z,0.90
2022-11-27T02:25:58.515Z,0.90
2022-11-27T02:28:33.662Z,0.80
2022-11-27T02:30:41.471Z,0.80
2022-11-27T02:32:59.086Z,0.80
2022-11-27T02:35:06.934Z,0.80
2022-11-27T02:37:32.719Z,0.70
2022-11-27T02:40:04.052Z,0.70
2022-11-27T02:42:11.642Z,0.70
2022-11-27T02:44:16.239Z,0.70
2022-11-27T02:46:19.775Z,0.70
2022-11-27T02:48:27.075Z,0.70
2022-11-27T02:50:31.859Z,0.70
2022-11-27T02:52:33.833Z,0.70
2022-11-27T02:54:35.908Z,0.70
2022-11-27T02:56:39.811Z,0.70
2022-11-27T02:58:42.365Z,0.70
2022-11-27T03:00:44.885Z,0.70
2022-11-27T03:02:54.657Z,0.70
2022-11-27T03:05:00.202Z,0.60
2022-11-27T03:07:10.063Z,0.70
2022-11-27T03:09:42.491Z,0.70
2022-11-27T03:11:45.051Z,0.70
2022-11-27T03:13:48.676Z,0.60
2022-11-27T03:15:59.524Z,0.60
2022-11-27T03:18:17.520Z,0.60
2022-11-27T03:20:27.721Z,0.60
2022-11-27T03:22:31.627Z,0.60
2022-11-27T03:24:35.752Z,0.60
2022-11-27T03:26:38.970Z,0.60
2022-11-27T03:28:44.134Z,0.50
2022-11-27T03:30:45.890Z,0.60
2022-11-27T03:32:47.777Z,0.60
2022-11-27T03:34:50.077Z,0.60
2022-11-27T03:36:51.816Z,0.60
2022-11-27T03:38:55.463Z,0.50
2022-11-27T03:41:18.963Z,0.50
2022-11-27T03:43:35.813Z,0.50
2022-11-27T03:45:51.881Z,0.50
2022-11-27T03:48:13.849Z,0.50
2022-11-27T03:50:30.696Z,0.50
2022-11-27T03:53:03.415Z,0.50
2022-11-27T03:55:28.984Z,0.40
2022-11-27T03:57:39.209Z,0.40
2022-11-27T03:59:44.737Z,0.40
2022-11-27T04:01:46.950Z,0.40
2022-11-27T04:03:48.807Z,0.40
2022-11-27T04:05:50.841Z,0.40
2022-11-27T04:07:52.617Z,0.40
2022-11-27T04:09:54.430Z,0.40
2022-11-27T04:11:56.139Z,0.40
2022-11-27T04:13:58.272Z,0.40
2022-11-27T04:16:03.761Z,0.30
2022-11-27T04:18:05.610Z,0.40
2022-11-27T04:20:08.387Z,0.30
2022-11-27T04:22:10.105Z,0.30
2022-11-27T04:24:11.830Z,0.40
2022-11-27T04:26:13.704Z,0.30
2022-11-27T04:28:17.568Z,0.40
2022-11-27T04:30:19.720Z,0.30
2022-11-27T04:32:21.477Z,0.30
2022-11-27T04:34:23.408Z,0.40
2022-11-27T04:36:25.143Z,0.30
2022-11-27T04:38:26.879Z,0.30
2022-11-27T04:40:28.568Z,0.30
2022-11-27T04:42:30.300Z,0.30
2022-11-27T04:44:32.124Z,0.30
2022-11-27T04:46:34.086Z,0.30
2022-11-27T04:48:35.882Z,0.30
2022-11-27T04:50:37.682Z,0.30
2022-11-27T04:52:39.414Z,0.30
2022-11-27T04:54:41.424Z,0.30
2022-11-27T04:56:43.402Z,0.30
2022-11-27T04:58:45.080Z,0.30
2022-11-27T05:00:46.872Z,0.30
2022-11-27T05:02:48.845Z,0.20
2022-11-27T05:04:51.719Z,0.30
2022-11-27T05:06:53.513Z,0.10
2022-11-27T05:09:01.932Z,0.20
2022-11-27T05:11:14.359Z,0.20
2022-11-27T05:13:16.082Z,0.20
2022-11-27T05:15:17.760Z,0.20
2022-11-27T05:17:19.532Z,0.20
2022-11-27T05:19:23.204Z,0.20
2022-11-27T05:21:24.914Z,0.20
2022-11-27T05:23:27.249Z,0.20
2022-11-27T05:25:28.937Z,0.20
2022-11-27T05:27:30.681Z,0.20
2022-11-27T05:29:32.470Z,0.20
2022-11-27T05:31:34.770Z,0.10
2022-11-27T05:33:36.579Z,0.10
2022-11-27T05:35:38.369Z,0.10
2022-11-27T05:37:40.066Z,0.10
2022-11-27T05:39:41.803Z,0.10
2022-11-27T05:41:43.900Z,0.10
2022-11-27T05:43:45.655Z,0.10
2022-11-27T05:45:47.413Z,0.10
2022-11-27T05:47:49.193Z,0.10
2022-11-27T05:49:50.971Z,0.10
2022-11-27T05:51:52.700Z,0.10
2022-11-27T05:53:54.509Z,0.10
2022-11-27T05:56:02.840Z,0.10
2022-11-27T05:58:04.576Z,0.00
2022-11-27T06:00:07.583Z,0.00
2022-11-27T06:02:09.365Z,0.00
2022-11-27T06:04:11.152Z,0.00
2022-11-27T06:06:15.707Z,0.00
2022-11-27T06:08:17.707Z,-0.10
2022-11-27T06:10:19.417Z,-0.10
2022-11-27T06:12:21.153Z,-0.10
2022-11-27T06:14:23.044Z,-0.10
2022-11-27T06:16:25.071Z,0.00
2022-11-27T06:18:26.850Z,0.00
2022-11-27T06:20:28.622Z,-0.10
2022-11-27T06:22:31.426Z,-0.10
2022-11-27T06:24:33.142Z,-0.10
2022-11-27T06:26:35.075Z,-0.10
2022-11-27T06:28:36.769Z,-0.10
2022-11-27T06:30:38.497Z,-0.10
2022-11-27T06:32:40.312Z,-0.10
2022-11-27T06:34:42.251Z,-0.20
2022-11-27T06:36:44.232Z,-0.20
2022-11-27T06:38:46.564Z,-0.20
2022-11-27T06:40:48.241Z,-0.20
2022-11-27T06:42:49.938Z,-0.20
2022-11-27T06:44:51.648Z,-0.20
2022-11-27T06:46:53.664Z,-0.20
2022-11-27T06:48:55.441Z,-0.20
2022-11-27T06:51:02.170Z,-0.20
2022-11-27T06:53:03.865Z,-0.20
2022-11-27T06:55:05.824Z,-0.20
2022-11-27T06:57:07.560Z,-0.20
2022-11-27T06:59:14.466Z,-0.20
2022-11-27T07:01:17.662Z,-0.20
2022-11-27T07:03:19.494Z,-0.20
2022-11-27T07:05:21.399Z,-0.20
2022-11-27T07:07:23.112Z,-0.20
2022-11-27T07:09:25.009Z,-0.20
2022-11-27T07:11:28.638Z,-0.20
2022-11-27T07:13:31.218Z,-0.20
2022-11-27T07:15:33.128Z,-0.20
2022-11-27T07:17:34.852Z,-0.20
2022-11-27T07:19:36.584Z,-0.20
2022-11-27T07:21:38.431Z,-0.20
2022-11-27T07:23:40.568Z,-0.10
2022-11-27T07:25:42.292Z,-0.10
2022-11-27T07:27:44.051Z,-0.10
2022-11-27T07:29:45.744Z,-0.10
2022-11-27T07:31:48.022Z,-0.10
2022-11-27T07:33:52.415Z,-0.10
2022-11-27T07:36:03.312Z,-0.10
2022-11-27T07:38:05.073Z,0.00
2022-11-27T07:40:07.568Z,0.00
2022-11-27T07:42:36.901Z,0.00
2022-11-27T07:44:30.931Z,0.10
2022-11-27T07:46:32.984Z,0.10
2022-11-27T07:48:35.093Z,0.10
2022-11-27T07:50:36.877Z,0.10
2022-11-27T07:52:41.827Z,0.20
2022-11-27T07:54:43.839Z,0.30
2022-11-27T07:56:45.537Z,0.30
2022-11-27T07:58:47.558Z,0.40
2022-11-27T08:00:49.347Z,0.40
2022-11-27T08:02:51.230Z,0.50
2022-11-27T08:04:53.141Z,0.50
2022-11-27T08:06:55.878Z,0.50
2022-11-27T08:08:57.685Z,0.60
2022-11-27T08:10:59.382Z,0.60
2022-11-27T08:13:01.144Z,0.70
2022-11-27T08:15:04.645Z,0.70
2022-11-27T08:17:06.329Z,0.70
2022-11-27T08:19:08.069Z,0.80
2022-11-27T08:21:09.843Z,0.80
2022-11-27T08:23:11.567Z,0.90
2022-11-27T08:25:13.996Z,0.90
2022-11-27T08:27:18.676Z,1.00
2022-11-27T08:29:20.417Z,1.00
2022-11-27T08:31:23.108Z,1.00
2022-11-27T08:33:25.421Z,1.10
2022-11-27T08:35:27.452Z,1.20
2022-11-27T08:37:29.396Z,1.20
2022-11-27T08:39:31.143Z,1.30
2022-11-27T08:41:32.864Z,1.30
2022-11-27T08:43:35.298Z,1.40
2022-11-27T08:45:40.825Z,1.50
2022-11-27T08:47:43.420Z,1.50
2022-11-27T08:49:46.391Z,1.50
2022-11-27T08:51:48.094Z,1.60
2022-11-27T08:53:49.821Z,1.60
2022-11-27T08:55:51.557Z,1.70
2022-11-27T08:57:53.436Z,1.70
2022-11-27T08:59:55.179Z,1.80
2022-11-27T09:01:56.994Z,1.80
2022-11-27T09:03:59.411Z,1.90
2022-11-27T09:06:01.249Z,2.00
2022-11-27T09:08:05.428Z,2.20
2022-11-27T09:10:08.567Z,2.10
2022-11-27T09:12:10.354Z,2.10
2022-11-27T09:14:12.506Z,2.20
2022-11-27T09:16:17.066Z,2.30
2022-11-27T09:18:18.785Z,2.30
2022-11-27T09:20:20.684Z,2.40
2022-11-27T09:22:22.500Z,2.40
2022-11-27T09:24:24.891Z,2.50
2022-11-27T09:26:27.966Z,2.50
2022-11-27T09:28:31.671Z,2.50
2022-11-27T09:30:33.729Z,2.50
2022-11-27T09:32:35.498Z,2.60
2022-11-27T09:34:37.850Z,2.60
2022-11-27T09:36:39.627Z,2.70
2022-11-27T09:38:42.558Z,2.70
2022-11-27T09:40:49.202Z,2.70
2022-11-27T09:42:59.715Z,2.70
2022-11-27T09:45:03.240Z,2.80
2022-11-27T09:47:14.624Z,2.80
2022-11-27T09:49:25.255Z,2.80
2022-11-27T09:51:34.140Z,2.90
2022-11-27T09:53:55.238Z,3.00
2022-11-27T09:56:00.202Z,3.10
2022-11-27T09:58:13.689Z,3.10
2022-11-27T10:00:19.275Z,3.20
2022-11-27T10:02:31.306Z,3.20
2022-11-27T10:04:57.840Z,3.30
2022-11-27T10:07:03.834Z,3.30
2022-11-27T10:09:33.475Z,3.30
2022-11-27T10:11:59.425Z,3.30
2022-11-27T10:14:08.201Z,3.40
2022-11-27T10:16:44.380Z,3.40
2022-11-27T10:19:03.600Z,3.40
2022-11-27T10:21:25.671Z,3.40
2022-11-27T10:23:48.265Z,3.40
2022-11-27T10:25:52.333Z,3.50
2022-11-27T10:28:12.076Z,3.50
2022-11-27T10:30:17.494Z,3.60
2022-11-27T10:35:11.062Z,3.70
2022-11-27T10:37:30.539Z,3.80
2022-11-27T10:39:41.276Z,3.80
2022-11-27T10:42:01.562Z,3.90
2022-11-27T10:44:27.105Z,3.90
2022-11-27T10:46:33.982Z,4.00
2022-11-27T10:48:35.819Z,4.10
2022-11-27T10:50:38.308Z,4.20
2022-11-27T10:52:55.773Z,4.20
2022-11-27T10:55:03.478Z,4.30
2022-11-27T10:57:42.780Z,4.40
2022-11-27T11:00:01.322Z,4.40
2022-11-27T11:02:05.548Z,4.50
2022-11-27T11:04:35.960Z,4.50
2022-11-27T11:06:34.001Z,4.50
2022-11-27T11:08:37.267Z,4.50
2022-11-27T11:10:45.420Z,4.60
2022-11-27T11:12:47.186Z,4.70
2022-11-27T11:14:59.106Z,4.70
2022-11-27T11:17:00.900Z,4.80
2022-11-27T11:19:03.552Z,4.80
2022-11-27T11:21:07.166Z,4.80
2022-11-27T11:23:21.344Z,4.80
2022-11-27T11:25:23.342Z,4.80
2022-11-27T11:27:30.492Z,4.70
2022-11-27T11:29:36.535Z,4.80
2022-11-27T11:31:41.138Z,4.80
2022-11-27T11:33:59.366Z,4.80
2022-11-27T11:36:09.352Z,4.90
2022-11-27T11:38:18.363Z,4.80
2022-11-27T11:40:20.097Z,4.90
2022-11-27T11:42:28.147Z,4.90
2022-11-27T11:44:40.450Z,4.90
2022-11-27T11:46:54.651Z,5.00
2022-11-27T11:49:22.290Z,5.00
2022-11-27T11:52:00.898Z,5.00
2022-11-27T11:54:22.377Z,5.00
2022-11-27T11:56:35.188Z,5.00
2022-11-27T11:59:09.165Z,5.00
2022-11-27T12:01:36.602Z,5.10
2022-11-27T12:04:10.423Z,5.20
2022-11-27T12:06:29.039Z,5.20
2022-11-27T12:09:03.178Z,5.30
2022-11-27T12:11:22.718Z,5.40
2022-11-27T12:13:43.127Z,5.50
2022-11-27T12:16:06.550Z,5.50
2022-11-27T12:18:25.897Z,5.50
2022-11-27T12:20:51.487Z,5.50
2022-11-27T12:23:30.163Z,5.60
2022-11-27T12:26:04.887Z,5.60
2022-11-27T12:28:15.606Z,5.60
2022-11-27T12:30:23.357Z,5.60
2022-11-27T12:32:55.538Z,5.70
2022-11-27T12:35:22.841Z,5.70
2022-11-27T12:38:07.999Z,5.70
2022-11-27T12:40:48.470Z,5.70
2022-11-27T12:43:08.422Z,5.70
2022-11-27T12:45:20.559Z,5.80
2022-11-27T12:47:43.890Z,5.80
2022-11-27T12:49:52.902Z,5.90
2022-11-27T12:52:11.542Z,5.90
2022-11-27T12:54:28.757Z,5.90
2022-11-27T12:56:45.341Z,6.00
2022-11-27T12:58:53.390Z,6.10
2022-11-27T13:01:13.915Z,6.10
2022-11-27T13:03:40.775Z,6.10
2022-11-27T13:06:00.193Z,6.10
2022-11-27T13:08:11.502Z,6.10
2022-11-27T13:10:47.296Z,6.20
2022-11-27T13:12:58.210Z,6.30
2022-11-27T13:15:21.668Z,6.20
2022-11-27T13:17:32.430Z,6.30
2022-11-27T13:19:40.657Z,6.30
2022-11-27T13:21:45.224Z,6.30
2022-11-27T13:23:47.122Z,6.30
2022-11-27T13:26:00.928Z,6.40
2022-11-27T13:28:05.377Z,6.40
2022-11-27T13:30:09.391Z,6.40
2022-11-27T13:32:21.004Z,6.40
2022-11-27T13:34:26.814Z,6.40
2022-11-27T13:36:39.587Z,6.40
2022-11-27T13:38:42.009Z,6.40
2022-11-27T13:40:47.659Z,6.40
2022-11-27T13:42:55.628Z,6.40
2022-11-27T13:45:11.357Z,6.40
2022-11-27T13:47:17.046Z,6.40
2022-11-27T13:49:30.681Z,6.40
2022-11-27T13:51:39.297Z,6.50
2022-11-27T13:53:42.349Z,6.50
2022-11-27T13:55:54.757Z,6.50
2022-11-27T13:57:58.374Z,6.50
2022-11-27T14:00:00.120Z,6.60
2022-11-27T14:02:06.914Z,6.60
2022-11-27T14:04:12.091Z,6.60
2022-11-27T14:06:22.446Z,6.60
2022-11-27T14:08:36.351Z,6.70
2022-11-27T14:10:53.369Z,6.70
2022-11-27T14:13:01.610Z,6.70
2022-11-27T14:15:18.038Z,6.70
2022-11-27T14:17:42.207Z,6.70
2022-11-27T14:19:45.861Z,6.70
2022-11-27T14:21:48.239Z,6.70
2022-11-27T14:23:52.423Z,6.70
2022-11-27T14:26:10.579Z,6.70
2022-11-27T14:28:25.989Z,6.70
2022-11-27T14:30:40.477Z,6.70
2022-11-27T14:32:42.581Z,6.70
2022-11-27T14:34:45.051Z,6.70
2022-11-27T14:36:52.343Z,6.60
2022-11-27T14:38:54.320Z,6.40
2022-11-27T14:41:09.317Z,6.30
2022-11-27T14:43:18.601Z,6.20
2022-11-27T14:45:22.405Z,6.10
2022-11-27T14:47:24.152Z,6.00
2022-11-27T14:49:28.591Z,5.80
2022-11-27T14:51:33.532Z,5.70
2022-11-27T14:53:35.492Z,5.60
2022-11-27T14:55:37.779Z,5.40
2022-11-27T14:57:39.604Z,5.30
2022-11-27T14:59:41.615Z,5.20
2022-11-27T15:01:45.838Z,5.10
2022-11-27T15:04:05.925Z,5.00
2022-11-27T15:06:08.056Z,5.00
2022-11-27T15:08:10.797Z,4.80
2022-11-27T15:10:24.208Z,4.70
2022-11-27T15:12:30.501Z,4.60
2022-11-27T15:14:32.557Z,4.50
2022-11-27T15:16:45.081Z,4.40
2022-11-27T15:18:57.826Z,4.30
2022-11-27T15:21:00.761Z,4.10
2022-11-27T15:23:03.357Z,4.00
2022-11-27T15:25:07.063Z,3.90
2022-11-27T15:27:14.845Z,3.80
2022-11-27T15:29:36.817Z,3.80
2022-11-27T15:31:38.832Z,3.70
2022-11-27T15:33:40.556Z,3.70
2022-11-27T15:35:42.299Z,3.70
2022-11-27T15:37:44.174Z,3.50
2022-11-27T15:39:52.200Z,3.50
2022-11-27T15:42:02.720Z,3.50
2022-11-27T15:44:04.576Z,3.50
2022-11-27T15:46:08.421Z,3.50
2022-11-27T15:48:18.644Z,3.50
2022-11-27T15:50:20.350Z,3.40
2022-11-27T15:52:22.361Z,3.40
2022-11-27T15:54:25.413Z,3.30
2022-11-27T15:56:27.733Z,3.30
2022-11-27T15:58:29.482Z,3.30
2022-11-27T16:00:31.507Z,3.20
2022-11-27T16:02:33.246Z,3.20
2022-11-27T16:04:35.023Z,3.10
2022-11-27T16:06:37.643Z,3.10
2022-11-27T16:08:39.435Z,3.10
2022-11-27T16:10:42.270Z,3.10
2022-11-27T16:12:44.088Z,3.00
2022-11-27T16:14:45.822Z,3.00
2022-11-27T16:16:47.862Z,3.00
2022-11-27T16:18:49.792Z,3.00
2022-11-27T16:20:51.594Z,3.00
2022-11-27T16:22:53.669Z,3.00
2022-11-27T16:24:55.440Z,3.10
2022-11-27T16:26:57.373Z,3.00
2022-11-27T16:28:59.376Z,2.90
2022-11-27T16:31:03.629Z,3.10
2022-11-27T16:33:05.452Z,2.90
2022-11-27T16:35:07.634Z,2.90
2022-11-27T16:37:11.238Z,2.90
2022-11-27T16:39:17.501Z,2.80
2022-11-27T16:41:20.136Z,2.90
2022-11-27T16:43:21.888Z,2.80
2022-11-27T16:45:23.750Z,2.80
2022-11-27T16:47:30.537Z,2.80
2022-11-27T16:49:35.124Z,2.80
2022-11-27T16:51:39.263Z,2.90
2022-11-27T16:53:43.105Z,2.90
2022-11-27T16:55:44.803Z,2.90
2022-11-27T16:57:47.024Z,2.90
2022-11-27T16:59:50.715Z,2.90
2022-11-27T17:01:52.533Z,2.90
2022-11-27T17:03:54.740Z,2.90
2022-11-27T17:05:56.528Z,2.90
2022-11-27T17:07:58.301Z,2.90
2022-11-27T17:10:00.088Z,2.90
2022-11-27T17:12:01.859Z,2.80
2022-11-27T17:14:06.415Z,2.80
2022-11-27T17:16:10.917Z,2.80
2022-11-27T17:18:12.891Z,2.80
2022-11-27T17:20:14.692Z,2.70
2022-11-27T17:22:16.404Z,2.70
2022-11-27T17:24:18.192Z,2.70
2022-11-27T17:26:22.643Z,2.60
2022-11-27T17:28:24.523Z,2.60
2022-11-27T17:30:26.358Z,2.70
2022-11-27T17:32:28.049Z,2.70
2022-11-27T17:34:29.831Z,2.70
2022-11-27T17:36:36.593Z,2.70
2022-11-27T17:38:39.607Z,2.70
2022-11-27T17:40:41.414Z,2.70
2022-11-27T17:42:43.135Z,2.70
2022-11-27T17:44:44.935Z,2.70
2022-11-27T17:46:49.942Z,2.70
2022-11-27T17:48:52.687Z,2.70
2022-11-27T17:50:55.005Z,2.60
2022-11-27T17:52:56.762Z,2.60
2022-11-27T17:54:58.489Z,2.70
2022-11-27T17:57:00.451Z,2.70
2022-11-27T17:59:02.699Z,2.60
2022-11-27T18:01:06.588Z,2.60
2022-11-27T18:03:08.400Z,2.60
2022-11-27T18:05:10.124Z,2.60
2022-11-27T18:07:12.587Z,2.70
2022-11-27T18:09:14.483Z,2.70
2022-11-27T18:11:19.498Z,2.70
2022-11-27T18:13:21.342Z,2.60
2022-11-27T18:15:23.131Z,2.70
2022-11-27T18:17:24.865Z,2.70
2022-11-27T18:19:26.608Z,2.60
2022-11-27T18:21:28.719Z,2.70
2022-11-27T18:23:30.497Z,2.70
2022-11-27T18:25:32.427Z,2.70
2022-11-27T18:27:34.493Z,2.80
2022-11-27T18:29:37.749Z,2.70
2022-11-27T18:31:41.273Z,2.70
2022-11-27T18:33:43.538Z,2.70
2022-11-27T18:35:45.368Z,2.70
2022-11-27T18:37:47.161Z,2.80
2022-11-27T18:39:49.188Z,2.70
2022-11-27T18:41:51.152Z,2.70
2022-11-27T18:43:52.958Z,2.80
2022-11-27T18:45:55.543Z,2.80
2022-11-27T18:47:57.328Z,2.80
2022-11-27T18:50:01.339Z,2.80
2022-11-27T18:52:03.635Z,2.80
2022-11-27T18:54:05.529Z,2.80
2022-11-27T18:56:13.476Z,2.80
2022-11-27T18:58:15.215Z,2.80
2022-11-27T19:00:17.435Z,2.80
2022-11-27T19:02:19.245Z,2.80
2022-11-27T19:04:21.127Z,2.80
2022-11-27T19:06:24.759Z,2.90
2022-11-27T19:08:26.713Z,2.80
2022-11-27T19:10:28.625Z,2.90
2022-11-27T19:12:30.366Z,2.80
2022-11-27T19:14:32.143Z,2.80
2022-11-27T19:16:36.603Z,2.90
2022-11-27T19:18:38.708Z,2.90
2022-11-27T19:20:40.493Z,2.90
2022-11-27T19:22:42.231Z,2.90
2022-11-27T19:24:43.947Z,2.90
2022-11-27T19:26:45.637Z,2.90
2022-11-27T19:28:51.736Z,3.00
2022-11-27T19:30:53.451Z,2.90
2022-11-27T19:32:55.154Z,3.00
2022-11-27T19:34:56.907Z,2.90
2022-11-27T19:36:58.645Z,2.90
2022-11-27T19:39:05.382Z,2.90
2022-11-27T19:41:14.902Z,2.90
2022-11-27T19:43:16.593Z,2.90
2022-11-27T19:45:24.266Z,3.00
2022-11-27T19:47:25.984Z,2.90
2022-11-27T19:49:27.719Z,2.90
2022-11-27T19:51:33.931Z,2.90
2022-11-27T19:53:36.325Z,2.90
2022-11-27T19:55:38.631Z,2.90
2022-11-27T19:57:40.364Z,3.00
2022-11-27T19:59:42.081Z,2.90
2022-11-27T20:01:44.205Z,2.90
2022-11-27T20:03:46.430Z,2.90
2022-11-27T20:05:48.164Z,3.00
2022-11-27T20:07:49.875Z,2.90
2022-11-27T20:09:52.302Z,2.90
2022-11-27T20:11:54.292Z,2.90
2022-11-27T20:13:59.915Z,2.90
2022-11-27T20:16:06.067Z,3.00
2022-11-27T20:18:07.961Z,2.90
2022-11-27T20:20:10.570Z,2.90
2022-11-27T20:22:12.174Z,3.00
2022-11-27T20:24:14.774Z,2.90
2022-11-27T20:26:20.701Z,2.90
2022-11-27T20:28:22.507Z,2.90
2022-11-27T20:30:24.227Z,2.80
2022-11-27T20:32:26.183Z,2.80
2022-11-27T20:34:27.977Z,2.90
2022-11-27T20:36:32.081Z,2.90
2022-11-27T20:38:33.845Z,2.90
2022-11-27T20:40:38.778Z,2.90
2022-11-27T20:42:40.669Z,2.90
2022-11-27T20:44:42.409Z,2.90
2022-11-27T20:46:44.174Z,2.90
2022-11-27T20:48:48.404Z,2.90
2022-11-27T20:50:51.440Z,2.90
2022-11-27T20:52:53.272Z,2.90
2022-11-27T20:54:55.121Z,2.90
2022-11-27T20:56:57.060Z,2.80
2022-11-27T20:58:59.062Z,2.80
2022-11-27T21:01:00.897Z,2.80
2022-11-27T21:03:03.165Z,2.80
2022-11-27T21:05:05.111Z,2.90
2022-11-27T21:07:06.913Z,2.90
2022-11-27T21:09:08.840Z,2.80
2022-11-27T21:11:15.718Z,2.80
2022-11-27T21:13:17.800Z,2.80
2022-11-27T21:15:19.531Z,2.80
2022-11-27T21:17:21.293Z,2.80
2022-11-27T21:19:27.520Z,2.80
2022-11-27T21:21:30.055Z,2.80
2022-11-27T21:23:31.734Z,2.80
2022-11-27T21:25:33.511Z,2.80
2022-11-27T21:27:37.304Z,2.70
2022-11-27T21:29:39.139Z,2.70
2022-11-27T21:31:46.160Z,2.70
2022-11-27T21:33:56.558Z,2.70
2022-11-27T21:35:58.299Z,2.70
2022-11-27T21:38:00.158Z,2.70
2022-11-27T21:40:01.968Z,2.70
2022-11-27T21:42:03.964Z,2.70
2022-11-27T21:44:06.332Z,2.70
2022-11-27T21:46:08.688Z,2.70
2022-11-27T21:48:14.366Z,2.70
2022-11-27T21:50:16.434Z,2.80
2022-11-27T21:52:18.308Z,2.80
2022-11-27T21:54:20.533Z,2.70
2022-11-27T21:56:24.738Z,2.70
2022-11-27T21:58:26.589Z,2.70
2022-11-27T22:00:28.512Z,2.60
2022-11-27T22:02:30.374Z,2.70
2022-11-27T22:04:32.157Z,2.70
2022-11-27T22:06:39.362Z,2.70
2022-11-27T22:08:42.990Z,2.70
2022-11-27T22:10:46.276Z,2.70
2022-11-27T22:12:48.007Z,2.70
2022-11-27T22:14:50.363Z,2.70
2022-11-27T22:16:52.227Z,2.70
2022-11-27T22:18:55.964Z,2.70
2022-11-27T22:21:02.396Z,2.70
2022-11-27T22:23:04.444Z,2.70
2022-11-27T22:25:06.524Z,2.70
2022-11-27T22:27:09.253Z,2.70
2022-11-27T22:29:10.952Z,2.70
2022-11-27T22:31:18.844Z,2.70
2022-11-27T22:33:20.640Z,2.70
2022-11-27T22:35:23.375Z,2.70
2022-11-27T22:37:25.178Z,2.70
2022-11-27T22:39:26.856Z,2.70
2022-11-27T22:41:30.986Z,2.70
2022-11-27T22:43:35.084Z,2.70
2022-11-27T22:45:41.555Z,2.70
2022-11-27T22:47:43.677Z,2.70
2022-11-27T22:49:45.407Z,2.70
2022-11-27T22:51:47.382Z,2.70
2022-11-27T22:53:49.176Z,2.70
2022-11-27T22:55:50.932Z,2.80
2022-11-27T22:57:52.670Z,2.70
2022-11-27T22:59:54.391Z,2.70
2022-11-27T23:01:56.187Z,2.70
2022-11-27T23:04:01.756Z,2.70
2022-11-27T23:06:04.037Z,2.70
2022-11-27T23:08:06.087Z,2.70
2022-11-27T23:10:09.363Z,2.70
2022-11-27T23:12:11.112Z,2.70
2022-11-27T23:14:12.856Z,2.70
2022-11-27T23:16:15.122Z,2.70
2022-11-27T23:18:16.932Z,2.70
2022-11-27T23:20:18.674Z,2.70
2022-11-27T23:22:20.380Z,2.70
2022-11-27T23:24:22.174Z,2.70
2022-11-27T23:26:24.343Z,2.70
2022-11-27T23:28:26.076Z,2.70
2022-11-27T23:30:27.804Z,2.70
2022-11-27T23:32:29.552Z,2.70
2022-11-27T23:34:31.333Z,2.70
2022-11-27T23:36:33.835Z,2.70
2022-11-27T23:38:35.430Z,2.70
2022-11-27T23:40:37.272Z,2.70
2022-11-27T23:42:39.006Z,2.60
2022-11-27T23:44:42.354Z,2.60
2022-11-27T23:46:44.281Z,2.70
2022-11-27T23:48:46.111Z,2.70
2022-11-27T23:50:47.856Z,2.70
2022-11-27T23:52:49.599Z,2.70
2022-11-27T23:54:51.433Z,2.70
2022-11-27T23:56:53.689Z,2.70
2022-11-27T23:58:56.598Z,2.70
